Time;durP1;ratioP1;P1;durP2;ratioP2;P2;SDS_P1;SDS_P2;PMS_P1;PMS_P2;Temp;Humidity;BMP_temperature;BMP_pressure;BME280_temperature;BME280_humidity;BME280_pressure;Samples;Min_cycle;Max_cycle;Signal;HPM_P1;HPM_P2
2022/03/23 00:01:16;;;;;;;;;;;;;;;21.22;38.24;102834.81;5069887;28;19931;-75
2022/03/23 00:03:42;;;;;;;;;;;;;;;21.22;38.17;102826.56;5054337;28;19931;-76
2022/03/23 00:06:08;;;;;;;;;;;;;;;21.22;38.43;102825.72;5054059;28;19921;-76
2022/03/23 00:08:33;;;;;;;;;;;;;;;21.22;38.29;102823.81;5054111;28;20015;-76
2022/03/23 00:10:59;;;;;;;;;;;;;;;21.23;38.33;102827.41;5036357;28;19932;-76
2022/03/23 00:13:24;;;;;;;;;;;;;;;21.22;38.43;102832.06;5069459;28;19947;-76
2022/03/23 00:15:49;;;;;;;;;;;;;;;21.22;38.23;102834.81;5052629;28;19947;-76
2022/03/23 00:18:15;;;;;;;;;;;;;;;21.22;38.37;102834.81;5053938;28;19938;-76
2022/03/23 00:20:40;;;;;;;;;;;;;;;21.21;38.06;102824.91;5053855;28;20278;-75
2022/03/23 00:23:08;;;;;;;;;;;;;;;21.21;38.34;102827.66;5053201;28;19974;-76
2022/03/23 00:25:33;;;;;;;;;;;;;;;21.20;38.38;102828.75;5053864;28;19924;-76
2022/03/23 00:27:58;;;;;;;;;;;;;;;21.20;38.31;102833.44;5054544;28;19921;-75
2022/03/23 00:30:24;;;;;;;;;;;;;;;21.19;38.26;102832.56;5054157;28;19950;-76
2022/03/23 00:32:49;;;;;;;;;;;;;;;21.19;38.37;102829.81;5069581;28;19927;-76
2022/03/23 00:35:14;;;;;;;;;;;;;;;21.18;38.07;102826.25;5053870;28;19917;-76
2022/03/23 00:37:40;;;;;;;;;;;;;;;21.20;38.13;102833.44;5054168;28;19921;-76
2022/03/23 00:40:05;;;;;;;;;;;;;;;21.18;38.16;102833.69;5053561;28;20020;-76
2022/03/23 00:42:31;;;;;;;;;;;;;;;21.18;38.25;102840.00;5054146;28;19928;-76
2022/03/23 00:44:58;;;;;;;;;;;;;;;21.18;38.29;102839.19;5053318;28;20385;-76
2022/03/23 00:47:23;;;;;;;;;;;;;;;21.17;38.06;102845.78;5053524;28;19943;-76
2022/03/23 00:49:48;;;;;;;;;;;;;;;21.15;38.32;102840.53;5053263;28;20302;-77
2022/03/23 00:52:13;;;;;;;;;;;;;;;21.15;38.47;102831.47;5053841;28;20015;-76
2022/03/23 00:54:39;;;;;;;;;;;;;;;21.15;38.27;102836.97;5035793;28;19954;-76
2022/03/23 00:57:05;;;;;;;;;;;;;;;21.15;38.19;102825.97;5053162;28;20004;-76
2022/03/23 00:59:31;;;;;;;;;;;;;;;21.14;38.33;102827.91;5035531;28;19917;-76
2022/03/23 01:01:56;;;;;;;;;;;;;;;21.14;38.23;102827.03;5035581;28;19974;-76
2022/03/23 01:04:23;;;;;;;;;;;;;;;21.13;38.24;102823.47;5052689;28;19952;-76
2022/03/23 01:06:48;;;;;;;;;;;;;;;21.13;38.36;102825.41;5053326;28;19946;-77
2022/03/23 01:09:14;;;;;;;;;;;;;;;21.13;38.24;102828.97;5069127;28;19947;-76
2022/03/23 01:11:39;;;;;;;;;;;;;;;21.12;38.22;102829.25;5053408;28;19954;-76
2022/03/23 01:14:05;;;;;;;;;;;;;;;21.11;37.94;102828.41;5053224;28;20043;-76
2022/03/23 01:16:31;;;;;;;;;;;;;;;21.11;38.30;102817.41;5053210;28;19921;-75
2022/03/23 01:18:56;;;;;;;;;;;;;;;21.11;38.24;102820.16;5053241;28;19923;-76
2022/03/23 01:21:22;;;;;;;;;;;;;;;21.10;38.08;102824.00;5053265;28;20003;-76
2022/03/23 01:23:47;;;;;;;;;;;;;;;21.10;38.03;102820.44;5053267;28;19955;-76
2022/03/23 01:26:12;;;;;;;;;;;;;;;21.10;38.22;102823.19;5068417;28;20320;-76
2022/03/23 01:28:38;;;;;;;;;;;;;;;21.11;38.29;102822.09;5035533;28;19929;-76
2022/03/23 01:31:03;;;;;;;;;;;;;;;21.10;37.79;102820.44;5053373;28;20345;-76
2022/03/23 01:33:28;;;;;;;;;;;;;;;21.10;38.04;102820.44;5054126;28;20000;-76
2022/03/23 01:35:54;;;;;;;;;;;;;;;21.09;38.12;102824.25;5039041;28;19957;-76
2022/03/23 01:38:19;;;;;;;;;;;;;;;21.09;38.26;102816.00;5057265;28;19921;-76
2022/03/23 01:40:44;;;;;;;;;;;;;;;21.07;38.30;102813.53;5071894;28;19960;-76
2022/03/23 01:43:10;;;;;;;;;;;;;;;21.08;38.25;102817.13;5056659;28;20388;-76
2022/03/23 01:45:35;;;;;;;;;;;;;;;21.08;38.34;102817.13;5056710;28;20365;-75
2022/03/23 01:48:01;;;;;;;;;;;;;;;21.07;38.16;102809.97;5057049;28;19917;-76
2022/03/23 01:50:26;;;;;;;;;;;;;;;21.08;38.12;102814.38;5057295;28;19928;-76
2022/03/23 01:52:51;;;;;;;;;;;;;;;21.07;38.24;102799.81;5038518;28;20362;-77
2022/03/23 01:55:17;;;;;;;;;;;;;;;21.06;37.95;102806.38;5056619;28;20372;-76
2022/03/23 01:57:47;;;;;;;;;;;;;;;21.05;38.25;102802.00;5056396;28;19932;-76
2022/03/23 02:00:15;;;;;;;;;;;;;;;21.05;38.25;102812.97;5056757;28;19921;-75
2022/03/23 02:02:40;;;;;;;;;;;;;;;21.06;38.25;102802.81;5055202;28;20360;-76
2022/03/23 02:05:06;;;;;;;;;;;;;;;21.04;38.09;102799.50;5072157;28;19986;-76
2022/03/23 02:07:31;;;;;;;;;;;;;;;21.04;38.25;102805.84;5055958;28;19937;-76
2022/03/23 02:09:57;;;;;;;;;;;;;;;21.04;38.11;102794.84;5071595;28;20386;-76
2022/03/23 02:12:22;;;;;;;;;;;;;;;21.03;38.00;102798.66;5038704;28;19916;-77
2022/03/23 02:14:48;;;;;;;;;;;;;;;21.02;38.09;102799.78;5038122;28;19967;-75
2022/03/23 02:17:13;;;;;;;;;;;;;;;21.03;38.25;102801.41;5038333;28;19927;-76
2022/03/23 02:19:39;;;;;;;;;;;;;;;21.02;38.01;102799.78;5037760;28;20413;-76
2022/03/23 02:22:04;;;;;;;;;;;;;;;21.02;38.28;102796.22;5038024;28;19936;-76
2022/03/23 02:24:31;;;;;;;;;;;;;;;21.02;38.06;102805.28;5071441;28;19920;-76
2022/03/23 02:26:57;;;;;;;;;;;;;;;21.01;37.88;102800.03;5055807;28;19924;-77
2022/03/23 02:29:24;;;;;;;;;;;;;;;21.00;38.16;102801.13;5055854;28;19923;-76
2022/03/23 02:31:50;;;;;;;;;;;;;;;20.99;38.03;102800.31;5055806;28;20087;-75
2022/03/23 02:34:15;;;;;;;;;;;;;;;20.99;38.18;102803.06;5055340;28;19996;-75
2022/03/23 02:36:40;;;;;;;;;;;;;;;20.99;38.21;102794.81;5071632;28;20265;-75
2022/03/23 02:39:06;;;;;;;;;;;;;;;21.00;37.96;102799.19;5055185;28;20379;-76
2022/03/23 02:41:31;;;;;;;;;;;;;;;20.99;38.12;102796.72;5037783;28;19921;-76
2022/03/23 02:43:56;;;;;;;;;;;;;;;20.98;38.08;102792.31;5037799;28;20416;-76
2022/03/23 02:46:22;;;;;;;;;;;;;;;20.98;38.03;102795.06;5070396;28;20356;-76
2022/03/23 02:48:48;;;;;;;;;;;;;;;20.96;38.22;102793.41;5037528;28;19921;-75
2022/03/23 02:51:14;;;;;;;;;;;;;;;20.98;37.93;102795.88;5055453;28;19996;-75
2022/03/23 03:02:22;;;;;;;;;;;;;;;20.95;37.96;102796.41;5055578;28;19923;-76
2022/03/23 03:04:50;;;;;;;;;;;;;;;20.94;38.10;102790.09;5037036;28;19971;-76
2022/03/23 03:07:15;;;;;;;;;;;;;;;20.93;38.01;102796.66;5055335;28;20453;-76
2022/03/23 03:09:41;;;;;;;;;;;;;;;20.94;38.05;102792.00;5036996;28;19920;-76
2022/03/23 03:12:07;;;;;;;;;;;;;;;20.93;38.04;102795.84;5055451;28;20000;-75
2022/03/23 03:14:32;;;;;;;;;;;;;;;20.93;38.16;102804.91;5070479;28;19957;-76
2022/03/23 03:16:58;;;;;;;;;;;;;;;20.93;38.00;102793.09;5054527;28;19935;-77
2022/03/23 03:19:23;;;;;;;;;;;;;;;20.92;38.19;102796.94;5055061;28;20352;-75
2022/03/23 03:21:48;;;;;;;;;;;;;;;20.92;38.11;102796.94;5054504;28;20303;-75
2022/03/23 03:24:14;;;;;;;;;;;;;;;20.91;37.77;102798.03;5070061;28;19935;-75
2022/03/23 03:26:39;;;;;;;;;;;;;;;20.91;38.21;102795.28;5054639;28;19917;-76
2022/03/23 03:29:07;;;;;;;;;;;;;;;20.90;37.94;102791.72;5054060;28;20028;-76
2022/03/23 03:31:32;;;;;;;;;;;;;;;20.91;37.90;102800.78;5054680;28;19993;-76
2022/03/23 03:33:58;;;;;;;;;;;;;;;20.90;38.08;102793.63;5054239;28;20046;-76
2022/03/23 03:36:24;;;;;;;;;;;;;;;20.90;37.94;102793.63;5054089;28;19924;-76
2022/03/23 03:38:49;;;;;;;;;;;;;;;20.88;37.90;102802.13;5054785;28;20019;-77
2022/03/23 03:41:15;;;;;;;;;;;;;;;20.89;38.09;102800.19;5054420;28;19925;-76
2022/03/23 03:43:40;;;;;;;;;;;;;;;20.89;38.17;102808.44;5053822;28;19927;-76
2022/03/23 03:46:10;;;;;;;;;;;;;;;20.88;38.17;102806.78;5054329;28;19923;-76
2022/03/23 03:48:35;;;;;;;;;;;;;;;20.88;38.11;102798.56;5069673;28;19921;-76
2022/03/23 03:51:00;;;;;;;;;;;;;;;20.88;38.19;102804.03;5054561;28;20005;-77
2022/03/23 03:53:26;;;;;;;;;;;;;;;20.87;37.88;102805.16;5053467;28;20403;-75
2022/03/23 03:55:51;;;;;;;;;;;;;;;20.86;37.84;102806.22;5054547;28;20298;-75
2022/03/23 03:58:17;;;;;;;;;;;;;;;20.86;38.16;102804.28;5035785;28;20394;-75
2022/03/23 04:00:42;;;;;;;;;;;;;;;20.86;38.14;102806.22;5036224;28;19921;-76
2022/03/23 04:03:08;;;;;;;;;;;;;;;20.86;38.25;102809.78;5054655;28;19925;-75
2022/03/23 04:05:33;;;;;;;;;;;;;;;20.85;37.85;102804.56;5069610;28;19921;-75
2022/03/23 04:07:58;;;;;;;;;;;;;;;20.85;38.08;102808.16;5054458;28;19933;-75
2022/03/23 04:10:24;;;;;;;;;;;;;;;20.84;38.06;102808.41;5054341;28;19941;-75
2022/03/23 04:12:50;;;;;;;;;;;;;;;20.83;38.12;102813.06;5054127;28;20326;-76
2022/03/23 04:15:16;;;;;;;;;;;;;;;20.83;37.83;102807.56;5053868;28;19928;-75
2022/03/23 04:17:42;;;;;;;;;;;;;;;20.83;37.94;102809.50;5053950;28;19956;-75
2022/03/23 04:20:08;;;;;;;;;;;;;;;20.81;37.91;102803.44;5053802;28;19924;-75
2022/03/23 04:22:33;;;;;;;;;;;;;;;20.82;37.98;102813.34;5069005;28;20435;-75
2022/03/23 04:24:58;;;;;;;;;;;;;;;20.81;38.12;102808.94;5054749;28;20010;-75
2022/03/23 04:27:24;;;;;;;;;;;;;;;20.81;38.06;102818.00;5069508;28;20104;-75
2022/03/23 04:29:49;;;;;;;;;;;;;;;20.81;38.10;102817.16;5054091;28;19971;-75
2022/03/23 04:32:14;;;;;;;;;;;;;;;20.80;38.07;102821.84;5053384;28;19939;-75
2022/03/23 04:34:39;;;;;;;;;;;;;;;20.79;37.94;102817.44;5069297;28;20381;-75
2022/03/23 04:37:05;;;;;;;;;;;;;;;20.80;37.99;102815.53;5053654;28;20330;-75
2022/03/23 04:39:30;;;;;;;;;;;;;;;20.79;37.88;102831.19;5035818;28;19921;-75
2022/03/23 04:41:55;;;;;;;;;;;;;;;20.79;38.12;102830.31;5035811;28;20437;-75
2022/03/23 04:44:21;;;;;;;;;;;;;;;20.78;38.11;102834.19;5053778;28;20369;-75
2022/03/23 04:46:46;;;;;;;;;;;;;;;20.77;37.89;102836.09;5053512;28;20464;-75
2022/03/23 04:49:12;;;;;;;;;;;;;;;20.78;38.01;102839.66;5052158;28;20032;-75
2022/03/23 04:51:38;;;;;;;;;;;;;;;20.78;37.87;102839.66;5053608;28;19921;-75
2022/03/23 04:54:04;;;;;;;;;;;;;;;20.77;38.02;102840.78;5053506;28;20352;-75
2022/03/23 04:56:29;;;;;;;;;;;;;;;20.77;37.87;102838.03;5052329;28;19928;-75
2022/03/23 04:58:56;;;;;;;;;;;;;;;20.76;38.16;102837.16;5053795;28;19955;-75
2022/03/23 05:01:21;;;;;;;;;;;;;;;20.75;37.90;102836.34;5035576;28;19940;-75
2022/03/23 05:03:47;;;;;;;;;;;;;;;20.75;38.00;102841.84;5054039;28;20367;-75
2022/03/23 05:06:12;;;;;;;;;;;;;;;20.74;38.17;102831.97;5035800;28;19935;-76
2022/03/23 05:08:37;;;;;;;;;;;;;;;20.74;38.04;102839.38;5054637;28;20089;-75
2022/03/23 05:11:02;;;;;;;;;;;;;;;20.73;37.87;102838.53;5057320;28;19979;-75
2022/03/23 05:13:28;;;;;;;;;;;;;;;20.73;38.14;102837.69;5039313;28;19923;-76
2022/03/23 05:15:53;;;;;;;;;;;;;;;20.72;37.96;102836.88;5057242;28;19951;-75
2022/03/23 05:18:18;;;;;;;;;;;;;;;20.73;37.96;102844.00;5057667;28;19928;-75
2022/03/23 05:20:44;;;;;;;;;;;;;;;20.72;38.02;102839.63;5056252;28;19967;-75
2022/03/23 05:23:09;;;;;;;;;;;;;;;20.71;37.76;102840.72;5039604;28;19955;-77
2022/03/23 05:25:34;;;;;;;;;;;;;;;20.72;38.05;102838.81;5057046;28;19931;-75
2022/03/23 05:27:59;;;;;;;;;;;;;;;20.70;38.05;102836.31;5056690;28;19921;-75
2022/03/23 05:30:25;;;;;;;;;;;;;;;20.70;37.98;102841.78;5039008;28;19952;-75
2022/03/23 05:32:50;;;;;;;;;;;;;;;20.70;38.21;102836.31;5056775;28;19941;-76
2022/03/23 05:35:15;;;;;;;;;;;;;;;20.70;38.15;102838.22;5056731;28;20407;-76
2022/03/23 05:37:40;;;;;;;;;;;;;;;20.69;38.09;102839.31;5038647;28;19935;-76
2022/03/23 05:40:06;;;;;;;;;;;;;;;20.69;37.71;102845.66;5072691;28;19921;-76
2022/03/23 05:42:32;;;;;;;;;;;;;;;20.69;37.97;102844.81;5072146;28;20020;-75
2022/03/23 05:44:57;;;;;;;;;;;;;;;20.68;38.17;102841.22;5038794;28;19931;-75
2022/03/23 05:47:22;;;;;;;;;;;;;;;20.67;38.00;102850.56;5056605;28;19928;-75
2022/03/23 05:49:47;;;;;;;;;;;;;;;20.68;37.99;102854.94;5056332;28;19979;-75
2022/03/23 05:52:13;;;;;;;;;;;;;;;20.67;37.95;102856.06;5056231;28;19916;-76
2022/03/23 05:54:38;;;;;;;;;;;;;;;20.66;37.97;102853.56;5056291;28;19982;-75
2022/03/23 05:57:03;;;;;;;;;;;;;;;20.66;37.92;102856.28;5038564;28;19971;-75
2022/03/23 05:59:30;;;;;;;;;;;;;;;20.66;38.10;102859.03;5055564;28;19927;-75
2022/03/23 06:01:55;;;;;;;;;;;;;;;20.65;38.06;102857.41;5038713;28;19950;-75
2022/03/23 06:04:21;;;;;;;;;;;;;;;20.65;38.12;102863.72;5071737;28;19943;-75
2022/03/23 06:06:46;;;;;;;;;;;;;;;20.64;38.09;102856.56;5039178;28;19950;-75
2022/03/23 06:09:12;;;;;;;;;;;;;;;20.65;37.93;102862.88;5055839;28;19960;-75
2022/03/23 06:11:38;;;;;;;;;;;;;;;20.65;37.87;102857.41;5056127;28;19931;-75
2022/03/23 06:14:03;;;;;;;;;;;;;;;20.63;37.97;102860.38;5054725;28;19953;-75
2022/03/23 06:16:28;;;;;;;;;;;;;;;20.64;37.96;102866.75;5038102;28;19978;-75
2022/03/23 06:18:54;;;;;;;;;;;;;;;20.63;37.89;102865.06;5056650;28;19956;-75
2022/03/23 06:21:19;;;;;;;;;;;;;;;20.63;37.86;102867.81;5070404;28;20427;-75
2022/03/23 06:23:44;;;;;;;;;;;;;;;20.64;37.89;102877.72;5055817;28;20300;-76
2022/03/23 06:26:09;;;;;;;;;;;;;;;20.63;37.96;102867.81;5055814;28;19921;-75
2022/03/23 06:28:35;;;;;;;;;;;;;;;20.61;37.77;102873.53;5055841;28;19925;-75
2022/03/23 06:31:00;;;;;;;;;;;;;;;20.63;37.89;102873.31;5055839;28;20272;-75
2022/03/23 06:33:26;;;;;;;;;;;;;;;20.62;38.02;102877.16;5055568;28;19984;-75
2022/03/23 06:35:51;;;;;;;;;;;;;;;20.61;38.04;102881.78;5055782;28;19917;-75
2022/03/23 06:38:17;;;;;;;;;;;;;;;20.61;37.78;102881.78;5055674;28;19934;-76
2022/03/23 06:40:42;;;;;;;;;;;;;;;20.61;38.06;102879.03;5038053;28;19936;-76
2022/03/23 06:43:09;;;;;;;;;;;;;;;20.61;37.85;102894.69;5037730;28;19917;-75
2022/03/23 06:45:34;;;;;;;;;;;;;;;20.60;37.77;102887.56;5070992;28;19924;-75
2022/03/23 06:47:59;;;;;;;;;;;;;;;20.59;37.96;102883.97;5055320;28;20337;-76
2022/03/23 06:50:25;;;;;;;;;;;;;;;20.60;38.00;102893.88;5071153;28;19967;-75
2022/03/23 06:52:50;;;;;;;;;;;;;;;20.59;38.04;102889.47;5055730;28;19942;-75
2022/03/23 06:55:16;;;;;;;;;;;;;;;20.59;38.00;102894.97;5054969;28;19921;-75
2022/03/23 06:57:41;;;;;;;;;;;;;;;20.59;38.02;102899.59;5053930;28;19927;-75
2022/03/23 07:00:13;;;;;;;;;;;;;;;20.59;38.07;102894.13;5055813;28;20036;-75
2022/03/23 07:02:45;;;;;;;;;;;;;;;20.58;38.00;102901.53;5037276;28;19917;-75
2022/03/23 07:05:11;;;;;;;;;;;;;;;20.58;37.98;102898.78;5054930;28;19927;-76
2022/03/23 07:07:37;;;;;;;;;;;;;;;20.58;37.84;102908.94;5055608;28;19993;-76
2022/03/23 07:10:06;;;;;;;;;;;;;;;20.57;37.89;102904.56;5070781;28;19943;-78
2022/03/23 07:12:31;;;;;;;;;;;;;;;20.56;37.91;102903.69;5055428;28;19920;-77
2022/03/23 07:14:56;;;;;;;;;;;;;;;20.57;38.00;102904.56;5054966;28;19994;-77
2022/03/23 07:17:22;;;;;;;;;;;;;;;20.57;37.86;102907.28;5070336;28;19997;-78
2022/03/23 07:19:47;;;;;;;;;;;;;;;20.56;38.05;102909.19;5054356;28;19935;-78
2022/03/23 07:22:13;;;;;;;;;;;;;;;20.57;37.86;102910.88;5054722;28;20322;-77
2022/03/23 07:24:38;;;;;;;;;;;;;;;20.57;37.85;102910.88;5070658;28;20037;-78
2022/03/23 07:27:04;;;;;;;;;;;;;;;20.57;37.86;102910.88;5069696;28;19943;-77
2022/03/23 07:29:29;;;;;;;;;;;;;;;20.57;38.11;102910.03;5070078;28;19950;-79
2022/03/23 07:31:54;;;;;;;;;;;;;;;20.57;38.17;102913.59;5036711;28;19925;-75
2022/03/23 07:34:19;;;;;;;;;;;;;;;20.57;38.05;102913.59;5053268;28;19928;-75
2022/03/23 07:36:47;;;;;;;;;;;;;;;20.57;38.11;102904.56;5054678;28;19955;-75
2022/03/23 07:39:16;;;;;;;;;;;;;;;20.57;38.32;102910.88;5054674;28;20019;-80
2022/03/23 07:41:42;;;;;;;;;;;;;;;20.58;38.16;102919.91;5054305;28;19917;-76
2022/03/23 07:44:07;;;;;;;;;;;;;;;20.58;38.28;102922.66;5054852;28;20333;-76
2022/03/23 07:46:33;;;;;;;;;;;;;;;20.57;38.19;102921.03;5053056;28;19942;-75
2022/03/23 07:48:58;;;;;;;;;;;;;;;20.58;38.09;102923.50;5036730;28;19938;-75
2022/03/23 07:51:23;;;;;;;;;;;;;;;20.58;38.37;102920.75;5070645;28;19935;-76
2022/03/23 07:53:48;;;;;;;;;;;;;;;20.59;38.41;102924.31;5052556;28;19958;-74
2022/03/23 07:56:13;;;;;;;;;;;;;;;20.58;38.67;102925.41;5069832;28;19946;-75
2022/03/23 07:58:39;;;;;;;;;;;;;;;20.58;38.59;102923.50;5070186;28;19932;-76
2022/03/23 08:01:04;;;;;;;;;;;;;;;20.59;38.73;102925.16;5069564;28;19950;-76
2022/03/23 08:03:29;;;;;;;;;;;;;;;20.59;38.92;102927.91;5053867;28;19921;-76
2022/03/23 08:05:54;;;;;;;;;;;;;;;20.61;38.78;102922.16;5053705;28;19942;-76
2022/03/23 08:08:20;;;;;;;;;;;;;;;20.62;38.88;102926.56;5036215;28;20382;-76
2022/03/23 08:10:45;;;;;;;;;;;;;;;20.61;38.92;102928.47;5054196;28;19982;-76
2022/03/23 08:13:12;;;;;;;;;;;;;;;20.62;38.91;102921.91;5035769;28;19921;-76
2022/03/23 08:15:38;;;;;;;;;;;;;;;20.62;39.01;102926.56;5035827;28;20049;-76
2022/03/23 08:18:04;;;;;;;;;;;;;;;20.62;38.84;102930.13;5035940;28;20004;-76
2022/03/23 08:20:35;;;;;;;;;;;;;;;20.63;38.84;102933.72;5052224;28;19921;-77
2022/03/23 08:23:05;;;;;;;;;;;;;;;20.62;38.80;102919.16;5053888;28;20447;-76
2022/03/23 08:25:31;;;;;;;;;;;;;;;20.63;38.97;102928.22;5053633;28;19917;-76
2022/03/23 08:27:57;;;;;;;;;;;;;;;20.62;38.94;102924.66;5053646;28;19963;-76
2022/03/23 08:30:22;;;;;;;;;;;;;;;20.63;39.05;102939.19;5054129;28;19927;-77
2022/03/23 08:32:47;;;;;;;;;;;;;;;20.62;38.85;102930.13;5035901;28;19933;-76
2022/03/23 08:35:12;;;;;;;;;;;;;;;20.62;38.79;102929.31;5053572;28;20073;-76
2022/03/23 08:37:41;;;;;;;;;;;;;;;20.63;39.10;102934.53;5068687;28;20386;-77
2022/03/23 08:40:06;;;;;;;;;;;;;;;20.63;38.86;102933.72;5035650;28;19924;-76
2022/03/23 08:42:31;;;;;;;;;;;;;;;20.63;38.96;102930.97;5052266;28;19939;-76
2022/03/23 08:44:57;;;;;;;;;;;;;;;20.64;38.82;102932.63;5056756;28;19944;-77
2022/03/23 08:47:23;;;;;;;;;;;;;;;20.63;38.76;102934.53;5057608;28;20085;-77
2022/03/23 08:49:48;;;;;;;;;;;;;;;20.63;38.85;102934.53;5057294;28;19916;-76
2022/03/23 08:52:14;;;;;;;;;;;;;;;20.63;38.84;102934.53;5057255;28;20305;-76
2022/03/23 08:54:39;;;;;;;;;;;;;;;20.64;38.98;102936.22;5057031;28;20429;-77
2022/03/23 08:57:05;;;;;;;;;;;;;;;20.65;38.77;102934.28;5040013;28;19935;-76
2022/03/23 08:59:30;;;;;;;;;;;;;;;20.65;38.84;102939.78;5039683;28;20275;-77
2022/03/23 09:01:56;;;;;;;;;;;;;;;20.65;39.20;102934.28;5057414;28;20462;-77
2022/03/23 09:04:21;;;;;;;;;;;;;;;20.65;38.78;102928.78;5057904;28;20328;-77
2022/03/23 09:06:46;;;;;;;;;;;;;;;20.66;39.02;102935.94;5039873;28;19921;-76
2022/03/23 09:09:11;;;;;;;;;;;;;;;20.65;38.98;102935.09;5072807;28;19932;-76
2022/03/23 09:11:37;;;;;;;;;;;;;;;20.65;38.95;102929.63;5072629;28;20349;-76
2022/03/23 09:14:02;;;;;;;;;;;;;;;20.66;38.78;102938.69;5057140;28;19947;-76
2022/03/23 09:16:28;;;;;;;;;;;;;;;20.65;38.70;102931.53;5056693;28;19921;-77
2022/03/23 09:18:53;;;;;;;;;;;;;;;20.66;38.94;102935.94;5056594;28;20049;-76
2022/03/23 09:21:19;;;;;;;;;;;;;;;20.66;38.71;102935.94;5072375;28;20280;-77
2022/03/23 09:23:44;;;;;;;;;;;;;;;20.66;38.65;102938.69;5072658;28;20364;-76
2022/03/23 09:26:10;;;;;;;;;;;;;;;20.66;38.79;102936.78;5038856;28;19932;-76
2022/03/23 09:28:36;;;;;;;;;;;;;;;20.66;38.66;102931.28;5056696;28;20046;-76
2022/03/23 09:31:01;;;;;;;;;;;;;;;20.67;38.71;102940.34;5056804;28;19944;-77
2022/03/23 09:33:28;;;;;;;;;;;;;;;20.67;38.78;102932.13;5056595;28;20020;-77
2022/03/23 09:35:53;;;;;;;;;;;;;;;20.67;38.75;102943.09;5038786;28;20361;-76
2022/03/23 09:38:18;;;;;;;;;;;;;;;20.67;38.38;102940.34;5038705;28;19965;-77
2022/03/23 09:40:46;;;;;;;;;;;;;;;20.67;38.63;102943.94;5056142;28;19942;-76
2022/03/23 09:43:11;;;;;;;;;;;;;;;20.68;38.48;102945.56;5038637;28;19966;-78
2022/03/23 09:45:46;;;;;;;;;;;;;;;20.67;38.42;102943.09;5055054;28;19921;-78
2022/03/23 09:48:13;;;;;;;;;;;;;;;20.69;38.26;102946.44;5056156;28;20291;-78
2022/03/23 09:50:40;;;;;;;;;;;;;;;20.69;38.35;102943.69;5039102;28;20287;-77
2022/03/23 09:53:05;;;;;;;;;;;;;;;20.69;38.19;102947.25;5056311;28;19986;-77
2022/03/23 09:55:30;;;;;;;;;;;;;;;20.68;38.32;102940.09;5054575;28;20388;-77
2022/03/23 09:57:57;;;;;;;;;;;;;;;20.70;38.17;102937.09;5056262;28;20468;-78
2022/03/23 10:00:22;;;;;;;;;;;;;;;20.70;38.25;102942.59;5054995;28;19935;-78
2022/03/23 10:02:54;;;;;;;;;;;;;;;20.69;38.04;102944.50;5038084;28;20302;-78
2022/03/23 10:05:25;;;;;;;;;;;;;;;20.69;38.17;102941.75;5056246;28;19929;-77
2022/03/23 10:07:53;;;;;;;;;;;;;;;20.69;38.17;102947.25;5038173;28;19940;-76
2022/03/23 10:10:37;;;;;;;;;;;;;;;20.70;38.17;102948.06;5038437;28;20284;-77
2022/03/23 10:13:21;;;;;;;;;;;;;;;20.70;38.21;102951.66;5055989;28;19940;-77
2022/03/23 10:16:05;;;;;;;;;;;;;;;20.71;38.11;102952.47;5055496;28;20322;-77
2022/03/23 10:18:52;;;;;;;;;;;;;;;20.70;38.00;102948.06;5037743;28;19943;-77
2022/03/23 10:21:21;;;;;;;;;;;;;;;20.69;37.76;102943.69;5055780;28;20368;-76
2022/03/23 10:24:02;;;;;;;;;;;;;;;20.69;37.67;102939.00;5055474;28;19924;-76
2022/03/23 10:26:28;;;;;;;;;;;;;;;20.70;37.95;102945.31;5056198;28;19954;-75
2022/03/23 10:28:53;;;;;;;;;;;;;;;20.70;37.82;102943.41;5056163;28;19928;-76
2022/03/23 10:31:22;;;;;;;;;;;;;;;20.70;37.76;102937.09;5055906;28;20388;-76
2022/03/23 10:34:07;;;;;;;;;;;;;;;20.72;37.66;102943.16;5037566;28;20357;-76
2022/03/23 10:36:33;;;;;;;;;;;;;;;20.70;37.64;102940.66;5037251;28;19956;-76
2022/03/23 10:38:59;;;;;;;;;;;;;;;20.71;37.65;102944.22;5037532;28;20343;-76
2022/03/23 10:41:25;;;;;;;;;;;;;;;20.71;37.84;102934.09;5037524;28;20399;-77
2022/03/23 10:43:51;;;;;;;;;;;;;;;20.72;37.82;102933.00;5055472;28;19986;-76
2022/03/23 10:46:17;;;;;;;;;;;;;;;20.71;37.67;102928.59;5037304;28;20364;-75
2022/03/23 10:48:54;;;;;;;;;;;;;;;20.72;37.65;102927.50;5070148;28;20386;-76
2022/03/23 10:51:27;;;;;;;;;;;;;;;20.73;37.71;102929.16;5054003;28;20015;-75
2022/03/23 10:53:52;;;;;;;;;;;;;;;20.74;37.58;102932.75;5054890;28;19950;-76
2022/03/23 10:56:27;;;;;;;;;;;;;;;20.74;37.59;102933.56;5071050;28;20007;-75
2022/03/23 10:59:13;;;;;;;;;;;;;;;20.74;37.57;102925.34;5055039;28;19923;-75
2022/03/23 11:01:57;;;;;;;;;;;;;;;20.75;37.65;102929.72;5037622;28;19921;-75
2022/03/23 11:04:23;;;;;;;;;;;;;;;20.75;37.52;102926.97;5054522;28;19923;-75
2022/03/23 11:06:49;;;;;;;;;;;;;;;20.77;37.57;102925.91;5054163;28;19953;-74
2022/03/23 11:17:46;;;;;;;;;;;;;;;20.79;37.61;102923.72;5054726;28;20380;-76
2022/03/23 11:20:11;;;;;;;;;;;;;;;20.80;37.63;102922.63;5069694;28;19932;-75
2022/03/23 11:22:37;;;;;;;;;;;;;;;20.80;37.47;102920.72;5036655;28;20411;-74
2022/03/23 11:25:03;;;;;;;;;;;;;;;20.81;37.55;102918.78;5054036;28;20320;-75
2022/03/23 11:27:30;;;;;;;;;;;;;;;20.82;37.33;102925.97;5036520;28;19950;-74
2022/03/23 11:29:56;;;;;;;;;;;;;;;20.82;37.53;102914.97;5052959;28;19936;-74
2022/03/23 11:32:29;;;;;;;;;;;;;;;20.82;37.71;102917.72;5054510;28;20024;-75
2022/03/23 11:34:56;;;;;;;;;;;;;;;20.83;37.72;102917.44;5053617;28;20368;-75
2022/03/23 11:37:23;;;;;;;;;;;;;;;20.84;37.70;102915.53;5052901;28;19917;-75
2022/03/23 11:39:50;;;;;;;;;;;;;;;20.85;37.64;102918.03;5053953;28;19934;-75
2022/03/23 11:42:17;;;;;;;;;;;;;;;20.85;37.69;102919.94;5054872;28;19916;-75
2022/03/23 11:44:45;;;;;;;;;;;;;;;20.86;37.63;102924.34;5035880;28;19920;-74
2022/03/23 11:47:34;;;;;;;;;;;;;;;20.86;37.62;102907.84;5053941;28;20344;-74
2022/03/23 11:50:03;;;;;;;;;;;;;;;20.86;37.63;102908.69;5045743;28;20031;-74
2022/03/23 11:52:54;;;;;;;;;;;;;;;20.87;37.45;102906.78;5053829;28;19960;-75
2022/03/23 11:55:39;;;;;;;;;;;;;;;20.87;37.53;102906.78;5050519;28;19917;-74
2022/03/23 11:58:23;;;;;;;;;;;;;;;20.87;37.57;102902.13;5053964;28;19919;-75
2022/03/23 12:00:51;;;;;;;;;;;;;;;20.88;37.37;102902.94;5035615;28;19921;-75
2022/03/23 12:03:34;;;;;;;;;;;;;;;20.89;37.49;102896.34;5053566;28;20018;-75
2022/03/23 12:06:05;;;;;;;;;;;;;;;20.89;37.42;102897.19;5053960;28;19920;-75
2022/03/23 12:08:42;;;;;;;;;;;;;;;20.90;37.51;102892.53;5053847;28;19939;-74
2022/03/23 12:11:31;;;;;;;;;;;;;;;20.90;37.67;102895.28;5053105;28;19947;-74
2022/03/23 12:13:57;;;;;;;;;;;;;;;20.92;37.67;102890.34;5027462;28;19921;-75
2022/03/23 12:16:42;;;;;;;;;;;;;;;20.92;37.48;102887.59;5035664;28;20280;-74
2022/03/23 12:19:07;;;;;;;;;;;;;;;20.93;37.67;102892.00;5052952;28;19917;-75
2022/03/23 12:21:40;;;;;;;;;;;;;;;20.93;37.61;102892.81;5051695;28;19972;-75
2022/03/23 12:24:13;;;;;;;;;;;;;;;20.94;37.56;102886.25;5053050;28;19928;-75
2022/03/23 12:26:43;;;;;;;;;;;;;;;20.95;37.46;102879.66;5052952;28;19931;-75
2022/03/23 12:29:13;;;;;;;;;;;;;;;20.95;37.32;102879.66;5035160;28;19917;-75
2022/03/23 12:31:39;;;;;;;;;;;;;;;20.95;37.56;102870.59;5053351;28;19917;-76
2022/03/23 12:34:06;;;;;;;;;;;;;;;20.95;37.46;102868.66;5053374;28;20031;-75
2022/03/23 12:37:01;;;;;;;;;;;;;;;20.96;37.64;102870.34;5035476;28;19933;-75
2022/03/23 12:39:26;;;;;;;;;;;;;;;20.98;37.57;102867.31;5053233;28;19920;-75
2022/03/23 12:41:52;;;;;;;;;;;;;;;20.97;37.48;102865.66;5035573;28;19934;-75
2022/03/23 12:44:26;;;;;;;;;;;;;;;20.98;37.58;102861.81;5068650;28;20064;-76
2022/03/23 12:46:51;;;;;;;;;;;;;;;20.99;37.61;102857.16;5053207;28;19921;-76
2022/03/23 13:00:25;;;;;;;;;;;;;;;21.01;37.50;102836.56;5053618;28;19948;-75
2022/03/23 13:03:08;;;;;;;;;;;;;;;21.00;37.56;102834.91;5067084;28;19928;-75